This is the latest recevied weather packets stored in our database for station/object NR0Q. If no packets are shown the sender has not sent any weather packets the latest 10 day(s).
| Time | Temp. | Humidity | Pressure | Rain* | Wind** | Luminosity | Snow |
|---|---|---|---|---|---|---|---|
| 1777609801 | 10.56° C | 85% | 1018.6 hPa | 0 mm | - | - | - |
| 1777608901 | 10.56° C | 83% | 1018.6 hPa | 0 mm | - | - | - |
| 1777608001 | 10.56° C | 82% | 1018.6 hPa | 0 mm | - | - | - |
| 1777607103 | 11.11° C | 80% | 1018.6 hPa | 0 mm | - | - | - |
| 1777606201 | 11.11° C | 78% | 1018.6 hPa | 0 mm | - | - | - |
| 1777605301 | 11.67° C | 75% | 1018.6 hPa | 0 mm | - | - | - |
| 1777604401 | 11.67° C | 72% | 1018.6 hPa | 0 mm | - | - | - |
| 1777603501 | 12.22° C | 70% | 1018.6 hPa | 0 mm | - | - | - |
| 1777602601 | 13.33° C | 66% | 1018.6 hPa | 0 mm | - | - | - |
| 1777601701 | 13.89° C | 61% | 1017.6 hPa | 0 mm | - | - | - |
| 1777600801 | 14.44° C | 56% | 1017.6 hPa | 0 mm | - | - | - |
| 1777599901 | 15.56° C | 52% | 1017.6 hPa | 0 mm | - | - | - |
| 1777599001 | 16.11° C | 50% | 1017.6 hPa | 0 mm | - | - | - |
| 1777597201 | 17.78° C | 46% | 1017.6 hPa | 0 mm | - | - | - |
| 1777595401 | 18.89° C | 40% | 1017.6 hPa | 0 mm | - | - | - |
| 1777594501 | 18.89° C | 40% | 1016.6 hPa | 0 mm | - | - | - |
| 1777593601 | 18.89° C | 40% | 1016.6 hPa | 0 mm | - | - | - |
| 1777592701 | 18.89° C | 42% | 1016.6 hPa | 0 mm | - | - | - |
| 1777591801 | 19.44° C | 39% | 1016.6 hPa | 0 mm | - | - | - |
| 1777590901 | 19.44° C | 37% | 1016.6 hPa | 0 mm | - | - | - |
| 1777590001 | 19.44° C | 35% | 1016.6 hPa | 0 mm | - | - | - |
| 1777589101 | 19.44° C | 37% | 1016.6 hPa | 0 mm | - | - | - |
| 1777588201 | 20° C | 35% | 1016.6 hPa | 0 mm | - | - | - |
| 1777587301 | 20° C | 37% | 1016.6 hPa | 0 mm | - | - | - |
| 1777586401 | 20° C | 36% | 1016.6 hPa | 0 mm | - | - | - |
* Rain latest hour (hover to see other rain measurements)
** Current wind speed in m/s (hover to see current wind gust speed)